createdAt,value
2022-11-05T00:01:39.174Z,7.18
2022-11-05T00:04:41.169Z,7.97
2022-11-05T00:07:31.198Z,6.95
2022-11-05T00:10:01.479Z,8.15
2022-11-05T00:12:46.490Z,8.45
2022-11-05T00:15:31.731Z,7.90
2022-11-05T00:17:58.157Z,7.82
2022-11-05T00:20:24.503Z,8.35
2022-11-05T00:23:09.750Z,7.07
2022-11-05T00:25:36.295Z,7.38
2022-11-05T00:28:03.260Z,7.43
2022-11-05T00:30:30.566Z,7.80
2022-11-05T00:33:00.408Z,7.30
2022-11-05T00:35:26.868Z,7.60
2022-11-05T00:37:53.941Z,7.88
2022-11-05T00:40:20.322Z,7.63
2022-11-05T00:43:05.404Z,8.48
2022-11-05T00:45:31.808Z,7.95
2022-11-05T00:48:16.742Z,8.48
2022-11-05T00:50:43.169Z,7.50
2022-11-05T00:53:10.040Z,7.72
2022-11-05T00:55:41.125Z,7.85
2022-11-05T00:58:09.107Z,7.72
2022-11-05T01:00:36.778Z,8.52
2022-11-05T01:03:05.488Z,7.97
2022-11-05T01:05:32.810Z,8.20
2022-11-05T01:07:59.970Z,8.20
2022-11-05T01:10:26.488Z,8.00
2022-11-05T01:12:53.052Z,7.63
2022-11-05T01:15:20.080Z,8.02
2022-11-05T01:17:46.573Z,8.48
2022-11-05T01:20:12.948Z,7.80
2022-11-05T01:22:39.328Z,7.55
2022-11-05T01:25:07.384Z,7.28
2022-11-05T01:27:33.870Z,6.80
2022-11-05T01:30:00.222Z,7.72
2022-11-05T01:32:26.636Z,7.65
2022-11-05T01:34:53.154Z,7.65
2022-11-05T01:37:19.506Z,8.05
2022-11-05T01:39:45.930Z,7.57
2022-11-05T01:42:19.777Z,7.63
2022-11-05T01:44:52.446Z,7.13
2022-11-05T01:47:37.397Z,7.20
2022-11-05T01:50:06.972Z,7.45
2022-11-05T01:52:34.488Z,6.82
2022-11-05T01:55:01.459Z,5.93
2022-11-05T01:57:28.661Z,5.40
2022-11-05T01:59:57.310Z,5.40
2022-11-05T02:02:25.257Z,5.15
2022-11-05T02:04:54.317Z,4.75
2022-11-05T02:07:21.180Z,5.07
2022-11-05T02:09:56.393Z,4.13
2022-11-05T02:12:23.427Z,4.68
2022-11-05T02:14:49.878Z,3.78
2022-11-05T02:17:19.271Z,4.20
2022-11-05T02:19:48.770Z,3.80
2022-11-05T02:22:24.164Z,3.97
2022-11-05T02:24:50.541Z,3.95
2022-11-05T02:27:35.928Z,3.42
2022-11-05T02:30:04.276Z,3.53
2022-11-05T02:32:45.966Z,3.38
2022-11-05T02:35:12.353Z,3.60
2022-11-05T02:37:40.308Z,3.17
2022-11-05T02:40:19.217Z,4.30
2022-11-05T02:42:48.421Z,2.65
2022-11-05T02:45:14.780Z,2.65
2022-11-05T02:47:44.156Z,2.50
2022-11-05T02:50:18.259Z,2.40
2022-11-05T02:52:59.279Z,1.85
2022-11-05T02:55:25.651Z,1.90
2022-11-05T02:57:52.035Z,2.33
2022-11-05T03:00:37.393Z,2.30
2022-11-05T03:03:05.590Z,2.30
2022-11-05T03:05:38.550Z,1.70
2022-11-05T03:08:08.783Z,2.17
2022-11-05T03:10:37.919Z,2.13
2022-11-05T03:13:07.430Z,2.08
2022-11-05T03:15:51.984Z,2.22
2022-11-05T03:18:26.919Z,2.30
2022-11-05T03:20:53.210Z,1.90
2022-11-05T03:23:45.919Z,2.40
2022-11-05T03:26:12.261Z,1.70
2022-11-05T03:28:40.609Z,2.20
2022-11-05T03:31:07.895Z,2.20
2022-11-05T03:33:36.260Z,2.67
2022-11-05T03:36:05.841Z,2.30
2022-11-05T03:38:34.100Z,2.83
2022-11-05T03:41:03.146Z,2.13
2022-11-05T03:43:30.501Z,2.45
2022-11-05T03:45:59.219Z,2.50
2022-11-05T03:48:27.262Z,2.45
2022-11-05T03:50:53.925Z,2.58
2022-11-05T03:53:25.617Z,2.00
2022-11-05T03:56:02.913Z,2.40
2022-11-05T03:58:30.024Z,3.40
2022-11-05T04:00:58.885Z,2.72
2022-11-05T04:03:25.337Z,2.60
2022-11-05T04:06:19.984Z,2.58
2022-11-05T04:11:49.654Z,2.78
2022-11-05T04:14:16.067Z,2.25
2022-11-05T04:17:01.165Z,2.50
2022-11-05T04:19:46.187Z,2.50
2022-11-05T04:22:41.576Z,3.15
2022-11-05T04:25:08.567Z,4.07
2022-11-05T04:27:35.471Z,3.25
2022-11-05T04:30:20.567Z,2.85
2022-11-05T04:33:06.350Z,3.08
2022-11-05T04:35:32.757Z,2.92
2022-11-05T04:38:00.108Z,3.53
2022-11-05T04:40:26.457Z,3.53
2022-11-05T04:42:53.467Z,3.35
2022-11-05T04:45:19.801Z,2.83
2022-11-05T04:47:46.170Z,4.00
2022-11-05T04:50:13.208Z,4.10
2022-11-05T04:52:40.245Z,3.05
2022-11-05T04:55:06.883Z,3.00
2022-11-05T04:57:33.484Z,2.95
2022-11-05T05:00:00.053Z,3.25
2022-11-05T05:02:26.477Z,3.70
2022-11-05T05:04:52.927Z,3.13
2022-11-05T05:07:19.351Z,2.97
2022-11-05T05:09:45.758Z,3.53
2022-11-05T05:12:12.168Z,3.28
2022-11-05T05:14:38.592Z,3.42
2022-11-05T05:17:05.004Z,3.50
2022-11-05T05:19:51.320Z,3.35
2022-11-05T05:22:17.921Z,3.50
2022-11-05T05:24:48.579Z,2.92
2022-11-05T05:27:17.946Z,3.05
2022-11-05T05:29:44.304Z,4.10
2022-11-05T05:32:10.706Z,4.90
2022-11-05T05:34:37.077Z,3.38
2022-11-05T05:37:03.471Z,3.22
2022-11-05T05:39:29.927Z,3.42
2022-11-05T05:41:56.273Z,3.28
2022-11-05T05:44:22.646Z,2.67
2022-11-05T05:46:49.043Z,2.72
2022-11-05T05:49:15.416Z,2.63
2022-11-05T05:51:41.872Z,2.75
2022-11-05T05:54:08.399Z,2.85
2022-11-05T05:56:34.786Z,2.97
2022-11-05T05:59:01.189Z,3.22
2022-11-05T06:01:27.622Z,2.72
2022-11-05T06:03:54.055Z,3.10
2022-11-05T06:06:21.018Z,3.13
2022-11-05T06:08:47.895Z,4.47
2022-11-05T06:11:14.577Z,3.78
2022-11-05T06:13:40.935Z,3.45
2022-11-05T06:16:08.057Z,3.53
2022-11-05T06:18:35.155Z,3.15
2022-11-05T06:21:02.003Z,2.90
2022-11-05T06:23:29.900Z,2.83
2022-11-05T06:25:59.060Z,3.15
2022-11-05T06:28:25.400Z,3.83
2022-11-05T06:30:51.989Z,3.08
2022-11-05T06:33:18.334Z,3.22
2022-11-05T06:35:44.702Z,3.00
2022-11-05T06:38:11.094Z,2.60
2022-11-05T06:40:37.457Z,3.08
2022-11-05T06:43:03.786Z,3.30
2022-11-05T06:45:30.122Z,2.88
2022-11-05T06:47:57.448Z,2.97
2022-11-05T06:50:24.425Z,2.88
2022-11-05T06:53:01.233Z,3.08
2022-11-05T06:55:28.806Z,2.92
2022-11-05T06:57:55.557Z,3.45
2022-11-05T07:00:22.153Z,3.47
2022-11-05T07:02:48.893Z,3.38
2022-11-05T07:05:15.811Z,3.75
2022-11-05T07:07:43.005Z,3.38
2022-11-05T07:10:11.560Z,3.70
2022-11-05T07:12:37.928Z,3.60
2022-11-05T07:15:04.610Z,3.50
2022-11-05T07:17:30.959Z,4.22
2022-11-05T07:19:57.334Z,4.07
2022-11-05T07:22:23.691Z,4.15
2022-11-05T07:24:50.973Z,4.03
2022-11-05T07:27:17.369Z,3.83
2022-11-05T07:29:43.802Z,3.92
2022-11-05T07:32:10.143Z,3.60
2022-11-05T07:34:36.505Z,3.75
2022-11-05T07:37:02.931Z,3.67
2022-11-05T07:39:29.261Z,4.10
2022-11-05T07:41:55.605Z,4.00
2022-11-05T07:44:21.978Z,3.88
2022-11-05T07:46:48.337Z,3.10
2022-11-05T07:49:14.713Z,3.30
2022-11-05T07:51:41.100Z,3.40
2022-11-05T07:54:07.493Z,3.95
2022-11-05T07:56:33.891Z,4.35
2022-11-05T07:59:00.245Z,3.90
2022-11-05T08:01:26.791Z,4.00
2022-11-05T08:03:53.272Z,4.03
2022-11-05T08:06:19.608Z,4.55
2022-11-05T08:08:45.991Z,4.47
2022-11-05T08:11:12.685Z,4.43
2022-11-05T08:13:39.035Z,4.40
2022-11-05T08:16:05.600Z,4.32
2022-11-05T08:18:32.511Z,4.28
2022-11-05T08:20:59.769Z,4.50
2022-11-05T08:23:26.503Z,4.20
2022-11-05T08:25:53.041Z,4.13
2022-11-05T08:28:22.325Z,3.92
2022-11-05T08:30:52.944Z,4.25
2022-11-05T08:33:20.934Z,5.00
2022-11-05T08:35:47.855Z,4.05
2022-11-05T08:38:15.583Z,4.43
2022-11-05T08:40:42.651Z,4.57
2022-11-05T08:43:10.787Z,4.13
2022-11-05T08:45:38.506Z,4.35
2022-11-05T08:48:09.288Z,3.78
2022-11-05T08:50:37.022Z,3.58
2022-11-05T08:53:04.168Z,3.80
2022-11-05T08:55:30.548Z,3.90
2022-11-05T08:58:01.203Z,4.13
2022-11-05T09:00:29.227Z,4.00
2022-11-05T09:02:58.495Z,3.22
2022-11-05T09:05:24.807Z,5.57
2022-11-05T09:07:53.169Z,5.30
2022-11-05T09:10:22.876Z,5.55
2022-11-05T09:12:49.354Z,6.57
2022-11-05T09:15:15.670Z,6.90
2022-11-05T09:17:42.081Z,5.88
2022-11-05T09:20:10.266Z,6.45
2022-11-05T09:22:40.573Z,6.50
2022-11-05T09:25:09.892Z,5.93
2022-11-05T09:27:36.241Z,7.60
2022-11-05T09:30:02.945Z,6.03
2022-11-05T09:32:30.492Z,5.65
2022-11-05T09:34:56.819Z,6.05
2022-11-05T09:37:23.184Z,4.65
2022-11-05T09:39:49.533Z,5.32
2022-11-05T09:42:16.932Z,4.40
2022-11-05T09:44:45.072Z,4.80
2022-11-05T09:47:14.476Z,4.65
2022-11-05T09:49:50.214Z,4.45
2022-11-05T09:52:26.825Z,4.40
2022-11-05T09:54:54.209Z,4.07
2022-11-05T09:57:23.552Z,4.40
2022-11-05T09:59:54.433Z,4.50
2022-11-05T10:02:32.705Z,4.88
2022-11-05T10:05:03.673Z,3.70
2022-11-05T10:07:47.727Z,3.20
2022-11-05T10:10:26.454Z,3.65
2022-11-05T10:12:55.058Z,4.00
2022-11-05T10:15:37.101Z,4.50
2022-11-05T10:18:09.874Z,3.80
2022-11-05T10:20:37.249Z,3.88
2022-11-05T10:23:17.516Z,4.53
2022-11-05T10:25:46.302Z,4.13
2022-11-05T10:28:23.585Z,4.15
2022-11-05T10:30:52.068Z,4.22
2022-11-05T10:33:24.533Z,4.32
2022-11-05T10:35:52.804Z,5.03
2022-11-05T10:38:19.156Z,3.50
2022-11-05T10:41:09.439Z,3.90
2022-11-05T10:43:58.853Z,4.40
2022-11-05T10:46:38.223Z,3.70
2022-11-05T10:49:26.005Z,4.55
2022-11-05T10:51:55.469Z,5.03
2022-11-05T10:54:22.722Z,4.45
2022-11-05T10:56:49.338Z,3.83
2022-11-05T10:59:23.636Z,4.45
2022-11-05T11:01:57.662Z,3.47
2022-11-05T11:04:25.239Z,3.83
2022-11-05T11:06:52.783Z,3.53
2022-11-05T11:09:39.368Z,3.80
2022-11-05T11:12:07.549Z,3.95
2022-11-05T11:14:35.076Z,4.28
2022-11-05T11:17:33.937Z,4.28
2022-11-05T11:20:19.744Z,3.97
2022-11-05T11:23:04.648Z,3.83
2022-11-05T11:25:49.972Z,4.07
2022-11-05T11:28:18.900Z,3.75
2022-11-05T11:30:50.116Z,3.85
2022-11-05T11:33:20.175Z,3.83
2022-11-05T11:35:46.555Z,3.95
2022-11-05T11:38:14.551Z,3.95
2022-11-05T11:40:40.943Z,4.00
2022-11-05T11:43:25.977Z,3.53
2022-11-05T11:45:53.747Z,4.05
2022-11-05T11:48:23.326Z,3.83
2022-11-05T11:50:50.057Z,4.00
2022-11-05T11:53:35.903Z,4.03
2022-11-05T11:56:21.085Z,4.60
2022-11-05T11:58:51.684Z,4.30
2022-11-05T12:01:23.897Z,4.10
2022-11-05T12:03:51.450Z,5.22
2022-11-05T12:06:17.752Z,5.28
2022-11-05T12:09:08.158Z,4.97
2022-11-05T12:11:47.534Z,5.90
2022-11-05T12:14:16.940Z,5.85
2022-11-05T12:16:50.529Z,5.50
2022-11-05T12:19:22.363Z,5.80
2022-11-05T12:21:54.207Z,5.35
2022-11-05T12:24:39.320Z,5.35
2022-11-05T12:27:24.497Z,5.45
2022-11-05T12:30:02.168Z,6.13
2022-11-05T12:32:47.299Z,6.65
2022-11-05T12:35:32.490Z,8.18
2022-11-05T12:38:28.302Z,8.93
2022-11-05T12:41:09.750Z,9.40
2022-11-05T12:43:36.071Z,8.70
2022-11-05T12:46:08.470Z,8.00
2022-11-05T12:48:59.977Z,8.23
2022-11-05T12:51:45.260Z,7.82
2022-11-05T12:54:17.638Z,8.25
2022-11-05T12:56:48.856Z,8.85
2022-11-05T12:59:21.830Z,7.63
2022-11-05T13:01:50.094Z,8.43
2022-11-05T13:04:36.922Z,8.15
2022-11-05T13:07:05.563Z,7.85
2022-11-05T13:09:38.640Z,8.60
2022-11-05T13:12:07.811Z,7.90
2022-11-05T13:14:54.989Z,9.00
2022-11-05T13:17:23.427Z,8.10
2022-11-05T13:19:49.829Z,8.45
2022-11-05T13:22:26.864Z,8.43
2022-11-05T13:24:55.372Z,9.52
2022-11-05T13:27:27.882Z,8.57
2022-11-05T13:29:58.074Z,8.80
2022-11-05T13:32:24.389Z,9.45
2022-11-05T13:34:57.495Z,10.52
2022-11-05T13:37:47.900Z,9.70
2022-11-05T13:40:17.007Z,10.05
2022-11-05T13:43:02.631Z,10.70
2022-11-05T13:45:47.606Z,9.60
2022-11-05T13:48:32.770Z,9.52
2022-11-05T13:51:17.582Z,8.65
2022-11-05T13:53:47.005Z,8.70
2022-11-05T13:56:32.325Z,8.55
2022-11-05T13:59:05.474Z,8.30
2022-11-05T14:01:38.145Z,8.20
2022-11-05T14:04:05.141Z,7.30
2022-11-05T14:06:34.133Z,7.88
2022-11-05T14:09:07.222Z,6.95
2022-11-05T14:11:35.376Z,6.70
2022-11-05T14:14:04.441Z,7.20
2022-11-05T14:16:51.466Z,7.25
2022-11-05T14:19:17.763Z,6.82
2022-11-05T14:21:47.615Z,6.75
2022-11-05T14:24:23.128Z,6.22
2022-11-05T14:27:01.692Z,6.75
2022-11-05T14:29:38.898Z,7.25
2022-11-05T14:32:25.635Z,7.10
2022-11-05T14:35:04.012Z,6.53
2022-11-05T14:37:30.446Z,6.32
2022-11-05T14:39:57.364Z,7.10
2022-11-05T14:42:28.575Z,6.53
2022-11-05T14:45:03.187Z,6.60
2022-11-05T14:47:31.872Z,6.40
2022-11-05T14:50:00.530Z,5.85
2022-11-05T14:52:27.205Z,5.72
2022-11-05T14:54:54.618Z,5.22
2022-11-05T14:57:39.860Z,5.80
2022-11-05T15:00:07.033Z,5.43
2022-11-05T15:02:35.946Z,5.30
2022-11-05T15:05:33.281Z,5.85
2022-11-05T15:08:00.122Z,5.82
2022-11-05T15:10:29.728Z,5.18
2022-11-05T15:13:01.614Z,5.15
2022-11-05T15:15:29.952Z,5.57
2022-11-05T15:18:01.520Z,5.10
2022-11-05T15:20:39.918Z,5.80
2022-11-05T15:23:09.518Z,5.82
2022-11-05T15:25:53.511Z,5.10
2022-11-05T15:28:32.055Z,4.35
2022-11-05T15:31:00.181Z,4.45
2022-11-05T15:33:27.012Z,4.50
2022-11-05T15:35:53.603Z,5.70
2022-11-05T15:38:28.049Z,5.43
2022-11-05T15:40:58.653Z,5.50
2022-11-05T15:43:25.036Z,5.05
2022-11-05T15:46:05.506Z,4.82
2022-11-05T15:48:32.229Z,7.57
2022-11-05T15:50:58.921Z,12.07
2022-11-05T15:53:56.016Z,8.30
2022-11-05T15:56:22.206Z,6.57
2022-11-05T15:58:49.656Z,6.50
2022-11-05T16:01:20.432Z,7.28
2022-11-05T16:03:46.937Z,7.55
2022-11-05T16:06:13.301Z,6.82
2022-11-05T16:08:45.667Z,6.53
2022-11-05T16:11:20.123Z,5.97
2022-11-05T16:13:46.490Z,8.32
2022-11-05T16:16:15.970Z,6.30
2022-11-05T16:18:43.219Z,6.35
2022-11-05T16:21:10.852Z,5.63
2022-11-05T16:23:41.243Z,6.00
2022-11-05T16:26:55.994Z,6.15
2022-11-05T16:29:17.381Z,6.57
2022-11-05T16:31:48.854Z,6.95
2022-11-05T16:34:41.530Z,6.72
2022-11-05T16:37:10.606Z,9.32
2022-11-05T16:39:37.038Z,6.30
2022-11-05T16:42:26.115Z,7.57
2022-11-05T16:44:53.573Z,7.55
2022-11-05T16:47:20.278Z,6.20
2022-11-05T16:49:50.156Z,7.03
2022-11-05T16:52:16.841Z,6.60
2022-11-05T16:54:43.264Z,7.05
2022-11-05T16:57:24.281Z,6.68
2022-11-05T16:59:50.679Z,6.10
2022-11-05T17:02:17.326Z,6.68
2022-11-05T17:04:43.806Z,6.85
2022-11-05T17:07:10.169Z,7.15
2022-11-05T17:09:36.522Z,7.75
2022-11-05T17:12:03.043Z,9.15
2022-11-05T17:14:29.399Z,8.23
2022-11-05T17:16:55.752Z,7.70
2022-11-05T17:19:22.140Z,7.40
2022-11-05T17:21:49.974Z,7.75
2022-11-05T17:24:16.331Z,8.57
2022-11-05T17:26:42.866Z,7.43
2022-11-05T17:29:09.372Z,8.30
2022-11-05T17:31:35.783Z,10.25
2022-11-05T17:34:02.206Z,8.35
2022-11-05T17:36:30.954Z,7.63
2022-11-05T17:38:57.465Z,8.00
2022-11-05T17:41:24.166Z,7.65
2022-11-05T17:43:54.925Z,6.72
2022-11-05T17:46:21.444Z,7.30
2022-11-05T17:48:47.878Z,7.60
2022-11-05T17:51:15.576Z,9.07
2022-11-05T17:53:42.292Z,9.32
2022-11-05T17:56:12.719Z,7.68
2022-11-05T17:58:39.643Z,7.72
2022-11-05T18:01:07.198Z,7.68
2022-11-05T18:03:34.176Z,7.72
2022-11-05T18:06:04.270Z,7.15
2022-11-05T18:08:31.190Z,6.88
2022-11-05T18:10:57.869Z,7.15
2022-11-05T18:13:24.397Z,5.97
2022-11-05T18:15:54.209Z,6.97
2022-11-05T18:18:20.828Z,6.65
2022-11-05T18:20:47.385Z,6.05
2022-11-05T18:23:14.597Z,6.40
2022-11-05T18:25:41.605Z,6.75
2022-11-05T18:28:08.204Z,6.00
2022-11-05T18:30:37.067Z,6.53
2022-11-05T18:33:03.534Z,6.10
2022-11-05T18:35:29.945Z,6.47
2022-11-05T18:37:56.523Z,7.65
2022-11-05T18:40:24.275Z,7.10
2022-11-05T18:42:50.732Z,8.82
2022-11-05T18:45:17.193Z,9.10
2022-11-05T18:47:43.787Z,7.93
2022-11-05T18:50:10.573Z,10.13
2022-11-05T18:52:37.040Z,8.40
2022-11-05T18:55:03.816Z,8.30
2022-11-05T18:57:32.198Z,8.68
2022-11-05T18:59:58.614Z,7.93
2022-11-05T19:02:25.158Z,9.18
2022-11-05T19:05:22.108Z,8.75
2022-11-05T19:07:38.990Z,8.18
2022-11-05T19:10:05.664Z,8.93
2022-11-05T19:12:32.114Z,8.10
2022-11-05T19:15:02.357Z,8.38
2022-11-05T19:17:30.702Z,8.50
2022-11-05T19:19:57.077Z,10.10
2022-11-05T19:22:23.425Z,9.27
2022-11-05T19:24:49.986Z,10.10
2022-11-05T19:27:16.738Z,10.40
2022-11-05T19:29:43.181Z,16.88
2022-11-05T19:32:09.691Z,8.48
2022-11-05T19:34:36.548Z,10.32
2022-11-05T19:37:03.048Z,12.55
2022-11-05T19:39:29.499Z,13.43
2022-11-05T19:42:00.407Z,12.88
2022-11-05T19:44:29.560Z,12.48
2022-11-05T19:46:55.948Z,10.52
2022-11-05T19:49:22.559Z,11.18
2022-11-05T19:51:48.922Z,11.50
2022-11-05T19:54:15.297Z,11.35
2022-11-05T19:56:41.716Z,11.52
2022-11-05T19:59:08.155Z,9.90
2022-11-05T20:01:34.919Z,9.30
2022-11-05T20:04:02.447Z,10.98
2022-11-05T20:06:31.813Z,9.60
2022-11-05T20:09:20.602Z,11.70
2022-11-05T20:11:46.125Z,13.10
2022-11-05T20:14:12.664Z,13.00
2022-11-05T20:16:40.167Z,10.05
2022-11-05T20:19:07.723Z,9.80
2022-11-05T20:21:34.777Z,7.88
2022-11-05T20:24:01.286Z,8.38
2022-11-05T20:26:27.956Z,10.18
2022-11-05T20:28:54.951Z,8.63
2022-11-05T20:31:21.437Z,7.55
2022-11-05T20:33:47.924Z,7.15
2022-11-05T20:36:15.689Z,8.57
2022-11-05T20:38:42.112Z,9.13
2022-11-05T20:41:09.199Z,8.77
2022-11-05T20:43:36.105Z,7.68
2022-11-05T20:46:04.048Z,13.57
2022-11-05T20:48:34.726Z,9.43
2022-11-05T20:51:05.242Z,7.05
2022-11-05T20:53:31.660Z,7.57
2022-11-05T20:55:58.154Z,14.80
2022-11-05T20:58:24.746Z,17.33
2022-11-05T21:00:53.097Z,21.48
2022-11-05T21:03:19.941Z,22.60
2022-11-05T21:05:50.393Z,15.75
2022-11-05T21:08:16.924Z,15.95
2022-11-05T21:10:50.039Z,17.05
2022-11-05T21:13:17.613Z,18.80
2022-11-05T21:15:48.813Z,20.42
2022-11-05T21:18:15.365Z,17.75
2022-11-05T21:20:41.785Z,9.77
2022-11-05T21:23:11.086Z,9.88
2022-11-05T21:25:38.125Z,9.43
2022-11-05T21:28:04.846Z,10.32
2022-11-05T21:30:31.228Z,8.80
2022-11-05T21:32:57.652Z,10.63
2022-11-05T21:35:24.079Z,11.32
2022-11-05T21:37:50.495Z,13.45
2022-11-05T21:40:17.198Z,11.27
2022-11-05T21:42:43.589Z,10.80
2022-11-05T21:45:10.922Z,11.05
2022-11-05T21:47:37.277Z,12.07
2022-11-05T21:50:03.974Z,12.13
2022-11-05T21:52:49.142Z,11.30
2022-11-05T21:55:34.166Z,10.50
2022-11-05T21:58:20.919Z,9.55
2022-11-05T22:00:47.481Z,8.52
2022-11-05T22:03:13.845Z,8.98
2022-11-05T22:05:40.419Z,8.23
2022-11-05T22:08:06.916Z,7.72
2022-11-05T22:10:33.391Z,7.90
2022-11-05T22:13:00.606Z,8.82
2022-11-05T22:15:27.170Z,8.63
2022-11-05T22:17:53.610Z,8.00
2022-11-05T22:20:20.074Z,7.35
2022-11-05T22:22:46.434Z,8.18
2022-11-05T22:25:13.429Z,7.57
2022-11-05T22:27:39.827Z,7.22
2022-11-05T22:30:06.525Z,7.28
2022-11-05T22:32:33.066Z,7.47
2022-11-05T22:34:59.682Z,6.53
2022-11-05T22:37:26.032Z,6.88
2022-11-05T22:39:52.489Z,6.45
2022-11-05T22:42:19.031Z,7.13
2022-11-05T22:44:45.454Z,8.07
2022-11-05T22:47:12.255Z,6.43
2022-11-05T22:49:39.017Z,7.38
2022-11-05T22:52:05.793Z,6.65
2022-11-05T22:54:37.897Z,6.70
2022-11-05T22:57:05.676Z,6.50
2022-11-05T22:59:32.026Z,6.82
2022-11-05T23:01:58.498Z,5.22
2022-11-05T23:04:25.002Z,5.85
2022-11-05T23:07:10.230Z,5.47
2022-11-05T23:09:55.484Z,5.07
2022-11-05T23:12:32.290Z,6.03
2022-11-05T23:14:59.888Z,5.85
2022-11-05T23:17:44.868Z,5.53
2022-11-05T23:20:15.384Z,5.20
2022-11-05T23:23:00.613Z,4.63
2022-11-05T23:25:26.997Z,3.63
2022-11-05T23:27:53.994Z,4.88
2022-11-05T23:30:21.538Z,5.07
2022-11-05T23:32:48.467Z,4.30
2022-11-05T23:35:15.264Z,5.28
2022-11-05T23:38:00.406Z,3.80
2022-11-05T23:40:28.575Z,4.38
2022-11-05T23:43:13.499Z,4.38
2022-11-05T23:46:00.043Z,4.20
2022-11-05T23:48:26.512Z,4.38
2022-11-05T23:50:55.912Z,4.68
2022-11-05T23:53:22.287Z,4.53
2022-11-05T23:55:49.090Z,3.90
2022-11-05T23:58:16.404Z,3.80
